Time;durP1;ratioP1;P1;durP2;ratioP2;P2;SDS_P1;SDS_P2;PMS_P1;PMS_P2;Temp;Humidity;BMP_temperature;BMP_pressure;BME280_temperature;BME280_humidity;BME280_pressure;Samples;Min_cycle;Max_cycle;Signal;HPM_P1;HPM_P2
2023/03/28 00:01:05;;;;;;;13.90;13.40;;;2.60;99.90;;;;;;5049390;28;20475;-79
2023/03/28 00:03:35;;;;;;;13.73;13.03;;;2.70;99.90;;;;;;5049108;28;20488;-79
2023/03/28 00:06:08;;;;;;;13.73;13.03;;;2.70;99.90;;;;;;5049097;28;20452;-79
2023/03/28 00:08:35;;;;;;;14.73;13.90;;;2.70;99.90;;;;;;5049374;28;20456;-76
2023/03/28 00:11:03;;;;;;;14.20;13.20;;;2.60;99.90;;;;;;5048959;28;20456;-77
2023/03/28 00:13:30;;;;;;;14.83;13.97;;;2.60;99.90;;;;;;5049030;28;20487;-78
2023/03/28 00:16:03;;;;;;;13.80;12.80;;;2.50;99.90;;;;;;5048991;28;20509;-78
2023/03/28 00:18:30;;;;;;;15.40;14.30;;;2.50;99.90;;;;;;5049041;28;20614;-79
2023/03/28 00:20:57;;;;;;;13.50;12.70;;;2.40;99.90;;;;;;5049168;28;20470;-79
2023/03/28 00:23:26;;;;;;;13.57;12.97;;;2.40;99.90;;;;;;5049039;28;20957;-79
2023/03/28 00:25:53;;;;;;;14.03;13.03;;;2.40;99.90;;;;;;5048966;28;20928;-79
2023/03/28 00:28:20;;;;;;;13.20;12.50;;;2.30;99.90;;;;;;5049053;28;20487;-79
2023/03/28 00:30:46;;;;;;;13.20;12.53;;;2.40;99.90;;;;;;5048814;28;20542;-79
2023/03/28 00:33:13;;;;;;;13.37;12.40;;;2.40;99.90;;;;;;5049017;28;20459;-80
2023/03/28 00:35:39;;;;;;;11.80;11.20;;;2.50;99.90;;;;;;5049019;28;20848;-79
2023/03/28 00:38:06;;;;;;;12.60;11.83;;;2.50;99.90;;;;;;5048974;28;20444;-80
2023/03/28 00:40:37;;;;;;;12.23;11.50;;;2.40;99.90;;;;;;5048743;28;20466;-80
2023/03/28 00:43:04;;;;;;;12.53;11.63;;;2.40;99.90;;;;;;5048752;28;20591;-80
2023/03/28 00:45:31;;;;;;;11.47;10.60;;;2.50;99.90;;;;;;5048829;28;20455;-80
2023/03/28 00:48:02;;;;;;;12.20;11.30;;;2.50;99.90;;;;;;5048869;28;20502;-81
2023/03/28 00:50:31;;;;;;;12.77;11.77;;;2.50;99.90;;;;;;5049232;28;20479;-82
2023/03/28 00:53:03;;;;;;;11.20;10.37;;;2.50;99.90;;;;;;5049043;28;20447;-82
2023/03/28 00:55:34;;;;;;;11.80;11.30;;;2.50;99.90;;;;;;5048795;28;20463;-80
2023/03/28 00:58:04;;;;;;;12.33;11.33;;;2.50;99.90;;;;;;5048769;28;20461;-80
2023/03/28 01:00:31;;;;;;;11.23;10.70;;;2.60;99.90;;;;;;5048661;28;20968;-81
2023/03/28 01:03:00;;;;;;;11.47;10.80;;;2.60;99.90;;;;;;5048716;28;20899;-81
2023/03/28 01:05:29;;;;;;;12.00;11.43;;;2.60;99.90;;;;;;5048751;28;20459;-81
2023/03/28 01:07:59;;;;;;;11.77;10.97;;;2.50;99.90;;;;;;5071550;28;20483;-81
2023/03/28 01:10:26;;;;;;;11.20;10.70;;;2.50;99.90;;;;;;5068437;28;20466;-80
2023/03/28 01:12:55;;;;;;;11.60;10.90;;;2.60;99.90;;;;;;5070189;28;20448;-81
2023/03/28 01:15:23;;;;;;;11.83;11.07;;;2.60;99.90;;;;;;5054772;28;20459;-80
2023/03/28 01:17:50;;;;;;;11.03;10.43;;;2.50;99.90;;;;;;5055650;28;20459;-81
2023/03/28 01:20:28;;;;;;;11.73;10.93;;;2.50;99.90;;;;;;5049808;28;20459;-81
2023/03/28 01:23:28;;;;;;;12.27;11.40;;;2.40;99.90;;;;;;5048673;28;20459;-80
2023/03/28 01:26:20;;;;;;;10.80;10.30;;;2.30;99.90;;;;;;5023304;28;20764;-81
2023/03/28 01:29:34;;;;;;;10.97;10.47;;;2.20;99.90;;;;;;5048498;28;20503;-80
2023/03/28 01:32:27;;;;;;;12.23;11.63;;;2.10;99.90;;;;;;5048635;28;20452;-79
2023/03/28 01:35:26;;;;;;;12.13;11.53;;;2.00;99.90;;;;;;5048691;28;20459;-78
2023/03/28 01:38:00;;;;;;;12.63;11.77;;;1.90;99.90;;;;;;5048383;28;20448;-78
2023/03/28 01:40:34;;;;;;;11.43;10.93;;;1.80;99.90;;;;;;5048271;28;20458;-79
2023/03/28 01:43:25;;;;;;;12.30;11.50;;;1.80;99.90;;;;;;5048267;28;20444;-78
2023/03/28 01:45:57;;;;;;;14.37;13.37;;;1.70;99.90;;;;;;5048355;28;20453;-78
2023/03/28 01:48:36;;;;;;;16.67;15.43;;;1.70;99.90;;;;;;5048146;28;20489;-79
2023/03/28 01:51:11;;;;;;;12.00;11.50;;;1.60;99.90;;;;;;5047966;28;20788;-79
2023/03/28 01:53:44;;;;;;;13.23;12.43;;;1.60;99.90;;;;;;5048258;28;20452;-79
2023/03/28 01:56:20;;;;;;;13.23;12.63;;;1.50;99.90;;;;;;5048048;28;20455;-79
2023/03/28 01:58:54;;;;;;;13.17;12.23;;;1.40;99.90;;;;;;5047951;28;20456;-80
2023/03/28 02:01:25;;;;;;;12.80;12.00;;;1.40;99.90;;;;;;5048123;28;20504;-81
2023/03/28 02:03:58;;;;;;;12.27;11.70;;;1.40;99.90;;;;;;5047774;28;20909;-80
2023/03/28 02:06:27;;;;;;;13.00;12.20;;;1.40;99.90;;;;;;5048058;28;20448;-80
2023/03/28 02:08:57;;;;;;;12.97;12.20;;;1.50;99.90;;;;;;5048013;28;20444;-79
2023/03/28 02:11:26;;;;;;;13.23;12.40;;;1.50;99.90;;;;;;5049564;28;20455;-80
2023/03/28 02:13:57;;;;;;;13.23;12.50;;;1.50;99.90;;;;;;5051710;28;20512;-78
2023/03/28 02:16:25;;;;;;;12.00;11.50;;;1.40;99.90;;;;;;5051558;28;20490;-78
2023/03/28 02:18:55;;;;;;;13.10;12.30;;;1.50;99.90;;;;;;5051530;28;20455;-79
2023/03/28 02:21:27;;;;;;;14.17;13.00;;;1.50;99.90;;;;;;5051453;28;20465;-78
2023/03/28 02:23:56;;;;;;;12.80;12.10;;;1.40;99.90;;;;;;5051584;28;20451;-78
2023/03/28 02:26:25;;;;;;;13.80;12.80;;;1.30;99.90;;;;;;5051645;28;20491;-78
2023/03/28 02:28:55;;;;;;;13.17;12.67;;;1.20;99.90;;;;;;5051006;28;20490;-79
2023/03/28 02:31:23;;;;;;;14.30;13.50;;;1.10;99.90;;;;;;5051406;28;20539;-79
2023/03/28 02:33:51;;;;;;;15.13;14.10;;;1.00;99.90;;;;;;5051348;28;20859;-80
2023/03/28 02:36:35;;;;;;;15.40;14.30;;;1.10;99.90;;;;;;5052085;28;20451;-78
2023/03/28 02:39:21;;;;;;;13.77;13.10;;;1.10;99.90;;;;;;5052152;28;20848;-79
2023/03/28 02:42:04;;;;;;;14.57;13.67;;;1.10;99.90;;;;;;5051986;28;20896;-78
2023/03/28 02:44:52;;;;;;;14.90;13.90;;;0.90;99.90;;;;;;5052041;28;20459;-79
2023/03/28 02:47:26;;;;;;;14.70;14.00;;;1.00;99.90;;;;;;5051808;28;20494;-79
2023/03/28 02:50:04;;;;;;;14.97;13.93;;;1.00;99.90;;;;;;5051966;28;20466;-80
2023/03/28 02:52:39;;;;;;;14.50;13.70;;;1.00;99.90;;;;;;5051737;28;20458;-80
2023/03/28 02:55:15;;;;;;;14.63;13.80;;;0.90;99.90;;;;;;5051783;28;20889;-79
2023/03/28 02:57:46;;;;;;;14.57;13.80;;;0.90;99.90;;;;;;5051529;28;20452;-78
2023/03/28 03:00:17;;;;;;;15.37;14.57;;;0.90;99.90;;;;;;5051717;28;20812;-79
2023/03/28 03:02:48;;;;;;;14.83;13.90;;;0.90;99.90;;;;;;5051380;28;20466;-79
2023/03/28 03:05:16;;;;;;;15.00;14.10;;;0.90;99.90;;;;;;5051452;28;20455;-79
2023/03/28 03:07:43;;;;;;;14.73;14.03;;;1.00;99.90;;;;;;5051138;28;20488;-79
2023/03/28 03:10:13;;;;;;;15.93;14.57;;;1.00;99.90;;;;;;5051610;28;20450;-79
2023/03/28 03:12:40;;;;;;;16.47;15.67;;;1.00;99.90;;;;;;5051548;28;20952;-80
2023/03/28 03:15:09;;;;;;;14.63;13.53;;;1.00;99.90;;;;;;5051563;28;20969;-81
2023/03/28 03:17:36;;;;;;;14.97;13.93;;;1.10;99.90;;;;;;5051646;28;20442;-81
2023/03/28 03:20:05;;;;;;;15.67;14.77;;;1.10;99.90;;;;;;5051423;28;20550;-81
2023/03/28 03:22:32;;;;;;;14.70;14.00;;;1.10;99.90;;;;;;5051150;28;20501;-82
2023/03/28 03:25:03;;;;;;;15.50;14.70;;;1.10;99.90;;;;;;5051085;28;20944;-80
2023/03/28 03:27:31;;;;;;;15.90;15.10;;;1.10;99.90;;;;;;5051181;28;20604;-80
2023/03/28 03:29:58;;;;;;;14.87;14.20;;;1.10;99.90;;;;;;5051224;28;20451;-83
2023/03/28 03:32:24;;;;;;;14.97;14.07;;;1.00;99.90;;;;;;5051458;28;20461;-84
2023/03/28 03:34:51;;;;;;;14.70;13.90;;;1.00;99.90;;;;;;5053199;28;20467;-83
2023/03/28 03:37:18;;;;;;;15.90;14.90;;;0.90;99.90;;;;;;5051331;28;20455;-82
2023/03/28 03:39:45;;;;;;;14.97;14.27;;;0.80;99.90;;;;;;5050841;28;20476;-78
2023/03/28 03:42:13;;;;;;;15.87;15.00;;;0.80;99.90;;;;;;5050973;28;20458;-79
2023/03/28 03:44:41;;;;;;;16.33;15.20;;;0.70;99.90;;;;;;5051608;28;20460;-83
2023/03/28 03:47:08;;;;;;;15.77;14.77;;;0.50;99.90;;;;;;5051162;28;20538;-82
2023/03/28 03:49:35;;;;;;;16.60;15.47;;;0.50;99.90;;;;;;5050782;28;20459;-82
2023/03/28 03:52:02;;;;;;;16.63;15.33;;;0.40;99.90;;;;;;5050803;28;20454;-83
2023/03/28 03:54:28;;;;;;;17.67;16.30;;;0.40;99.90;;;;;;5050713;28;20959;-79
2023/03/28 03:56:55;;;;;;;17.10;15.70;;;0.40;99.90;;;;;;5050722;28;21004;-78
2023/03/28 03:59:22;;;;;;;15.97;14.80;;;0.50;99.90;;;;;;5051142;28;20449;-78
2023/03/28 04:01:50;;;;;;;16.20;15.10;;;0.60;99.90;;;;;;5051631;28;20460;-79
2023/03/28 04:04:16;;;;;;;17.37;16.13;;;0.60;99.90;;;;;;5053103;28;20507;-80
2023/03/28 04:06:43;;;;;;;17.30;16.00;;;0.60;99.90;;;;;;5061043;28;20448;-78
2023/03/28 04:09:10;;;;;;;17.83;16.63;;;0.50;99.90;;;;;;5072671;28;20480;-78
2023/03/28 04:11:36;;;;;;;17.37;16.03;;;0.60;99.90;;;;;;5070273;28;20431;-80
2023/03/28 04:14:04;;;;;;;18.63;17.33;;;0.60;99.90;;;;;;5071833;28;20433;-81
2023/03/28 04:16:33;;;;;;;18.60;17.07;;;0.60;99.90;;;;;;5058618;28;20447;-82
2023/03/28 04:19:01;;;;;;;17.20;16.10;;;0.50;99.90;;;;;;5059149;28;20479;-84
2023/03/28 04:21:30;;;;;;;18.37;16.70;;;0.50;99.90;;;;;;5052091;28;20454;-81
2023/03/28 04:24:00;;;;;;;18.47;16.93;;;0.60;99.90;;;;;;5050500;28;20456;-78
2023/03/28 04:26:27;;;;;;;17.30;16.03;;;0.50;99.90;;;;;;5050068;28;20448;-79
2023/03/28 04:28:54;;;;;;;16.93;15.80;;;0.50;99.90;;;;;;5050117;28;20490;-81
2023/03/28 04:31:27;;;;;;;18.73;17.63;;;0.50;99.90;;;;;;5051171;28;20515;-80
2023/03/28 04:33:54;;;;;;;20.27;17.63;;;0.50;99.90;;;;;;5049603;28;20464;-77
2023/03/28 04:36:24;;;;;;;24.67;16.20;;;0.40;99.90;;;;;;5049692;28;20847;-79
2023/03/28 04:38:51;;;;;;;16.93;15.80;;;0.50;99.90;;;;;;5049909;28;20597;-79
2023/03/28 04:41:18;;;;;;;17.37;16.07;;;0.50;99.90;;;;;;5049865;28;20452;-78
2023/03/28 04:43:45;;;;;;;16.27;15.17;;;0.60;99.90;;;;;;5050037;28;20459;-80
2023/03/28 04:46:11;;;;;;;17.40;15.90;;;0.60;99.90;;;;;;5049719;28;20445;-80
2023/03/28 04:48:38;;;;;;;18.60;17.17;;;0.60;99.90;;;;;;5049626;28;20503;-80
2023/03/28 04:51:05;;;;;;;18.10;16.93;;;0.60;99.90;;;;;;5049666;28;20468;-81
2023/03/28 04:53:35;;;;;;;17.57;15.97;;;0.70;99.90;;;;;;5049705;28;20448;-80
2023/03/28 04:56:01;;;;;;;18.80;17.50;;;0.60;99.90;;;;;;5049530;28;20949;-80
2023/03/28 04:58:28;;;;;;;19.20;17.70;;;0.60;99.90;;;;;;5049553;28;20975;-80
2023/03/28 05:00:55;;;;;;;18.87;17.23;;;0.70;99.90;;;;;;5049603;28;20452;-78
2023/03/28 05:03:23;;;;;;;18.30;16.90;;;0.70;99.90;;;;;;5049639;28;20479;-80
2023/03/28 05:05:52;;;;;;;20.87;19.20;;;0.70;99.90;;;;;;5049396;28;20465;-81
2023/03/28 05:08:21;;;;;;;20.30;18.40;;;0.70;99.90;;;;;;5049628;28;20484;-82
2023/03/28 05:10:50;;;;;;;18.70;17.17;;;0.70;99.90;;;;;;5050471;28;20508;-80
2023/03/28 05:13:17;;;;;;;21.00;19.00;;;0.60;99.90;;;;;;5068865;28;20834;-83
2023/03/28 05:15:47;;;;;;;19.03;17.70;;;0.50;99.90;;;;;;5069504;28;20452;-82
2023/03/28 05:18:13;;;;;;;20.60;19.20;;;0.60;99.90;;;;;;5069403;28;20451;-79
2023/03/28 05:20:40;;;;;;;19.23;17.73;;;0.50;99.90;;;;;;5069189;28;20456;-80
2023/03/28 05:23:07;;;;;;;18.83;17.50;;;0.50;99.90;;;;;;5069548;28;20459;-79
2023/03/28 05:25:35;;;;;;;19.07;17.30;;;0.60;99.90;;;;;;5069431;28;20458;-79
2023/03/28 05:28:04;;;;;;;20.27;18.90;;;0.60;99.90;;;;;;5069296;28;20483;-80
2023/03/28 05:30:30;;;;;;;24.67;18.00;;;0.50;99.90;;;;;;5069174;28;20958;-79
2023/03/28 05:32:57;;;;;;;26.57;17.67;;;0.50;99.90;;;;;;5069147;28;20547;-79
2023/03/28 05:35:24;;;;;;;19.73;18.20;;;0.60;99.90;;;;;;5069346;28;20458;-79
2023/03/28 05:37:51;;;;;;;19.53;17.67;;;0.70;99.90;;;;;;5069458;28;20453;-78
2023/03/28 05:40:18;;;;;;;22.70;20.37;;;0.80;99.90;;;;;;5069211;28;20452;-79
2023/03/28 05:42:45;;;;;;;21.53;19.90;;;0.80;99.90;;;;;;5069020;28;20710;-79
2023/03/28 05:45:13;;;;;;;22.63;20.83;;;0.90;99.90;;;;;;5064107;28;20848;-78
2023/03/28 05:47:40;;;;;;;21.70;19.80;;;0.80;99.90;;;;;;5072310;28;20539;-78
2023/03/28 05:50:09;;;;;;;20.23;18.93;;;0.90;99.90;;;;;;5069895;28;20450;-79
2023/03/28 05:52:36;;;;;;;23.50;19.60;;;0.90;99.90;;;;;;5072913;28;20451;-78
2023/03/28 05:55:02;;;;;;;23.10;19.80;;;0.90;99.90;;;;;;5072773;28;20461;-78
2023/03/28 05:57:29;;;;;;;20.00;18.40;;;1.00;99.90;;;;;;5072636;28;20969;-77
2023/03/28 05:59:56;;;;;;;20.97;19.10;;;1.00;99.90;;;;;;5072675;28;20452;-77
2023/03/28 06:02:24;;;;;;;22.47;19.90;;;1.10;99.90;;;;;;5072627;28;20986;-73
2023/03/28 06:04:53;;;;;;;22.33;20.30;;;1.40;99.90;;;;;;5072188;28;21239;-72
2023/03/28 06:07:20;;;;;;;23.17;20.50;;;1.80;99.90;;;;;;5071921;28;20447;-71
2023/03/28 06:09:47;;;;;;;19.83;18.23;;;2.30;99.90;;;;;;5071975;28;20490;-71
2023/03/28 06:12:14;;;;;;;19.10;17.60;;;2.70;99.90;;;;;;5071811;28;20442;-70
2023/03/28 06:14:41;;;;;;;19.33;17.10;;;2.90;99.90;;;;;;5072148;28;20545;-71
2023/03/28 06:17:07;;;;;;;19.60;16.60;;;3.10;99.90;;;;;;5072498;28;20558;-71
2023/03/28 06:19:35;;;;;;;15.97;14.97;;;3.40;99.90;;;;;;5071496;28;20439;-71
2023/03/28 06:22:02;;;;;;;16.90;15.53;;;3.60;99.90;;;;;;5073781;28;20448;-72
2023/03/28 06:24:29;;;;;;;17.60;15.23;;;3.90;99.90;;;;;;5068245;28;20945;-72
2023/03/28 06:26:56;;;;;;;17.10;15.67;;;4.20;99.90;;;;;;5072664;28;20445;-71
2023/03/28 06:29:22;;;;;;;19.97;17.10;;;4.60;99.90;;;;;;5074625;28;20489;-72
2023/03/28 06:31:49;;;;;;;20.80;18.60;;;5.00;99.90;;;;;;5072282;28;20450;-72
2023/03/28 06:34:17;;;;;;;20.33;18.30;;;5.20;99.90;;;;;;5073676;28;20445;-74
2023/03/28 06:36:45;;;;;;;18.00;16.20;;;5.50;99.90;;;;;;5069529;28;20454;-74
2023/03/28 06:39:12;;;;;;;19.27;17.47;;;5.70;99.90;;;;;;5076607;28;20454;-76
2023/03/28 06:41:39;;;;;;;16.50;15.10;;;6.00;99.90;;;;;;5070314;28;20455;-75
2023/03/28 06:44:06;;;;;;;16.13;14.83;;;6.40;99.90;;;;;;5069606;28;20448;-73
2023/03/28 06:46:33;;;;;;;16.97;15.43;;;6.70;99.90;;;;;;5066420;28;20812;-76
2023/03/28 06:48:59;;;;;;;15.40;14.20;;;7.00;99.90;;;;;;5071289;28;20494;-77
2023/03/28 06:51:26;;;;;;;17.00;15.40;;;7.40;99.90;;;;;;5071810;28;20482;-78
2023/03/28 06:53:54;;;;;;;16.67;15.30;;;8.00;99.90;;;;;;5071859;28;20451;-77
2023/03/28 06:56:21;;;;;;;15.10;13.80;;;7.90;99.90;;;;;;5074120;28;20937;-76
2023/03/28 06:58:48;;;;;;;16.03;14.63;;;7.80;99.90;;;;;;5065385;28;20460;-79
2023/03/28 07:01:15;;;;;;;16.40;14.40;;;7.90;99.90;;;;;;5077999;28;20442;-80
2023/03/28 07:03:41;;;;;;;16.77;15.27;;;7.90;99.90;;;;;;5063396;28;21023;-79
2023/03/28 07:06:11;;;;;;;15.77;14.23;;;8.10;99.90;;;;;;5068980;28;20953;-77
2023/03/28 07:08:38;;;;;;;15.93;14.30;;;8.40;99.90;;;;;;5073187;28;20494;-77
2023/03/28 07:11:07;;;;;;;14.50;13.40;;;8.70;99.90;;;;;;5087629;28;20443;-76
2023/03/28 07:13:34;;;;;;;13.13;12.23;;;9.20;99.90;;;;;;5089081;28;20445;-79
2023/03/28 07:16:02;;;;;;;13.20;12.40;;;9.40;97.60;;;;;;5093775;28;20743;-81
2023/03/28 07:18:29;;;;;;;12.10;11.20;;;9.60;96.80;;;;;;5078931;28;20442;-82
2023/03/28 07:20:56;;;;;;;12.17;10.93;;;9.80;96.60;;;;;;5074657;28;20449;-82
2023/03/28 07:23:22;;;;;;;12.67;11.53;;;10.70;95.40;;;;;;5075324;28;20439;-82
2023/03/28 07:25:49;;;;;;;12.00;11.20;;;11.20;93.50;;;;;;5070666;28;20450;-81
2023/03/28 07:28:17;;;;;;;13.80;12.17;;;11.80;92.90;;;;;;5071097;28;20831;-83
2023/03/28 07:30:44;;;;;;;13.37;12.10;;;12.10;90.00;;;;;;5069046;28;20446;-82
2023/03/28 07:33:10;;;;;;;14.33;13.27;;;13.00;88.70;;;;;;5073866;28;20470;-81
2023/03/28 07:35:39;;;;;;;13.90;12.90;;;13.30;83.60;;;;;;5073776;28;20908;-86
2023/03/28 07:38:06;;;;;;;13.87;12.93;;;13.50;83.40;;;;;;5068565;28;20453;-83
2023/03/28 07:40:33;;;;;;;13.80;12.80;;;13.80;79.10;;;;;;5076095;28;20443;-88
2023/03/28 07:43:00;;;;;;;14.40;13.23;;;13.80;78.40;;;;;;5075818;28;20452;-86
2023/03/28 07:45:28;;;;;;;14.50;13.00;;;13.70;77.00;;;;;;5071028;28;21003;-80
2023/03/28 07:47:54;;;;;;;11.90;11.10;;;13.30;78.30;;;;;;5070711;28;20532;-80
2023/03/28 07:50:21;;;;;;;13.90;13.07;;;12.70;79.00;;;;;;5070314;28;20491;-81
2023/03/28 07:52:48;;;;;;;14.17;12.97;;;13.70;79.40;;;;;;5070439;28;20451;-81
2023/03/28 07:55:15;;;;;;;13.67;12.47;;;15.00;73.30;;;;;;5070289;28;20462;-82
2023/03/28 07:57:44;;;;;;;13.90;12.73;;;15.30;70.80;;;;;;5070538;28;20450;-80
2023/03/28 08:00:12;;;;;;;14.03;12.93;;;15.50;69.70;;;;;;5070343;28;20443;-78
2023/03/28 08:02:40;;;;;;;13.67;12.50;;;16.00;67.80;;;;;;5070013;28;20494;-79
2023/03/28 08:05:08;;;;;;;14.17;13.13;;;16.00;67.20;;;;;;5070462;28;20483;-79
2023/03/28 08:07:35;;;;;;;13.90;12.70;;;15.40;67.00;;;;;;5069993;28;20690;-79
2023/03/28 08:10:01;;;;;;;12.93;12.27;;;15.60;67.00;;;;;;5069258;28;20621;-78
2023/03/28 08:12:29;;;;;;;12.67;11.77;;;15.50;67.50;;;;;;5069951;28;20991;-79
2023/03/28 08:14:55;;;;;;;12.50;11.50;;;15.90;66.20;;;;;;5070261;28;20452;-80
2023/03/28 08:17:22;;;;;;;15.23;12.60;;;15.90;64.50;;;;;;5070039;28;20443;-78
2023/03/28 08:19:50;;;;;;;14.00;12.83;;;15.50;66.10;;;;;;5069682;28;20940;-82
2023/03/28 08:22:17;;;;;;;15.87;14.63;;;15.60;64.60;;;;;;5069934;28;20455;-78
2023/03/28 08:24:44;;;;;;;14.40;13.30;;;13.60;67.90;;;;;;5069686;28;20459;-78
2023/03/28 08:27:11;;;;;;;13.13;12.33;;;11.90;72.60;;;;;;5069755;28;20450;-76
2023/03/28 08:29:37;;;;;;;12.77;11.97;;;11.50;76.70;;;;;;5069807;28;20486;-78
2023/03/28 08:32:06;;;;;;;13.27;12.37;;;10.70;79.70;;;;;;5069756;28;20992;-77
2023/03/28 08:34:32;;;;;;;15.07;13.47;;;11.10;81.30;;;;;;5069111;28;20453;-78
2023/03/28 08:37:00;;;;;;;13.47;12.60;;;10.80;82.00;;;;;;5072582;28;20490;-77
2023/03/28 08:39:27;;;;;;;14.90;13.70;;;11.30;82.80;;;;;;5069684;28;20448;-78
2023/03/28 08:42:19;;;;;;;13.20;12.20;;;11.60;83.20;;;;;;5071543;28;20953;-79
2023/03/28 08:44:57;;;;;;;13.67;12.77;;;12.60;80.20;;;;;;5060059;28;20457;-79
2023/03/28 08:47:29;;;;;;;14.23;13.53;;;13.90;75.50;;;;;;5069040;28;20462;-79
2023/03/28 08:50:00;;;;;;;14.43;13.10;;;14.70;69.60;;;;;;5066715;28;20475;-79
2023/03/28 08:52:28;;;;;;;13.03;12.07;;;13.80;70.60;;;;;;5069519;28;20457;-79
2023/03/28 08:55:00;;;;;;;13.83;12.83;;;13.50;71.50;;;;;;5063102;28;20819;-78
2023/03/28 08:57:29;;;;;;;12.80;11.90;;;14.40;68.20;;;;;;5068087;28;20478;-79
2023/03/28 09:00:07;;;;;;;12.20;11.23;;;14.80;65.40;;;;;;5066765;28;20439;-79
2023/03/28 09:02:34;;;;;;;13.53;12.43;;;15.10;63.70;;;;;;5067358;28;20435;-78
2023/03/28 09:05:02;;;;;;;12.50;11.70;;;15.20;63.80;;;;;;5064811;28;20440;-78
2023/03/28 09:07:37;;;;;;;12.93;12.13;;;16.80;58.40;;;;;;5067181;28;20450;-78
2023/03/28 09:10:15;;;;;;;13.30;12.70;;;17.10;57.00;;;;;;5064992;28;20565;-77
2023/03/28 09:12:56;;;;;;;13.20;12.33;;;17.60;55.30;;;;;;5063195;28;20454;-77
2023/03/28 09:15:32;;;;;;;12.93;12.13;;;17.50;55.20;;;;;;5068693;28;20950;-79
2023/03/28 09:18:19;;;;;;;13.10;12.60;;;17.50;56.30;;;;;;5067291;28;20948;-79
2023/03/28 09:20:52;;;;;;;13.97;12.80;;;18.20;53.40;;;;;;5072156;28;20450;-79
2023/03/28 09:23:38;;;;;;;13.63;13.03;;;19.00;54.00;;;;;;5075944;28;20961;-79
2023/03/28 09:26:10;;;;;;;14.73;13.83;;;20.60;51.50;;;;;;5073228;28;20443;-81
2023/03/28 09:28:45;;;;;;;13.37;12.67;;;19.70;49.10;;;;;;5073026;28;20437;-85
2023/03/28 09:31:15;;;;;;;13.07;12.40;;;17.80;50.40;;;;;;5069617;28;20920;-84
2023/03/28 09:33:46;;;;;;;16.90;13.20;;;15.70;52.00;;;;;;5071949;28;20458;-84
2023/03/28 09:36:18;;;;;;;11.87;11.17;;;14.40;54.50;;;;;;5075045;28;20459;-87
2023/03/28 09:38:52;;;;;;;12.37;11.77;;;13.30;56.40;;;;;;5076457;28;20453;-90
2023/03/28 09:41:24;;;;;;;11.80;10.93;;;12.80;56.90;;;;;;5082485;28;20443;-89
2023/03/28 09:43:55;;;;;;;11.93;11.20;;;12.10;59.50;;;;;;5075107;28;20450;-82
2023/03/28 09:46:28;;;;;;;12.00;11.40;;;11.80;60.60;;;;;;5076105;28;20466;-83
2023/03/28 09:48:56;;;;;;;12.53;11.33;;;11.20;59.40;;;;;;5075811;28;20596;-83
2023/03/28 09:51:23;;;;;;;11.03;10.23;;;11.30;58.50;;;;;;5079517;28;20450;-83
2023/03/28 09:53:51;;;;;;;9.80;9.23;;;11.30;58.90;;;;;;5087488;28;20423;-83
2023/03/28 09:56:26;;;;;;;10.23;9.73;;;11.40;59.70;;;;;;5099906;28;20427;-79
2023/03/28 09:58:54;;;;;;;10.27;9.67;;;12.30;59.00;;;;;;5098665;28;20460;-82
2023/03/28 10:01:30;;;;;;;11.17;10.23;;;14.60;56.00;;;;;;5097039;28;20431;-81
2023/03/28 10:03:58;;;;;;;10.53;10.03;;;16.80;52.70;;;;;;5085680;28;20487;-82
2023/03/28 10:06:27;;;;;;;13.10;12.20;;;17.90;48.50;;;;;;5074571;28;20477;-82
2023/03/28 10:09:10;;;;;;;10.40;9.87;;;17.50;46.70;;;;;;5072851;28;20458;-81
2023/03/28 10:11:46;;;;;;;10.20;9.67;;;17.40;46.30;;;;;;5072869;28;21038;-79
2023/03/28 10:14:29;;;;;;;10.40;9.90;;;17.10;45.20;;;;;;5072838;28;20451;-86
2023/03/28 10:16:56;;;;;;;11.10;10.40;;;17.90;44.30;;;;;;5071108;28;20545;-84
2023/03/28 10:19:25;;;;;;;10.80;10.30;;;17.70;43.70;;;;;;5070947;28;20459;-83
2023/03/28 10:21:52;;;;;;;10.70;10.17;;;18.80;42.90;;;;;;5072676;28;20451;-83
2023/03/28 10:24:21;;;;;;;10.50;10.10;;;18.40;42.60;;;;;;5072510;28;20474;-82
2023/03/28 10:26:48;;;;;;;10.47;9.87;;;18.00;42.90;;;;;;5072627;28;20466;-84
2023/03/28 10:29:15;;;;;;;9.67;9.10;;;17.40;43.50;;;;;;5071659;28;20443;-83
2023/03/28 10:31:47;;;;;;;10.30;9.70;;;16.40;44.30;;;;;;5071818;28;20953;-82
2023/03/28 10:34:25;;;;;;;10.50;9.80;;;15.80;45.20;;;;;;5072666;28;20537;-83
2023/03/28 10:36:52;;;;;;;9.90;9.40;;;15.70;45.90;;;;;;5056987;28;20444;-84
2023/03/28 10:39:25;;;;;;;10.53;10.03;;;15.90;46.60;;;;;;5052549;28;20966;-82
2023/03/28 10:41:53;;;;;;;11.17;10.30;;;16.40;46.30;;;;;;5053000;28;20451;-81
2023/03/28 10:44:27;;;;;;;11.40;10.70;;;16.50;45.30;;;;;;5052919;28;20440;-86
2023/03/28 10:46:56;;;;;;;10.83;10.33;;;17.20;45.10;;;;;;5052601;28;20478;-84
2023/03/28 10:49:24;;;;;;;11.40;10.50;;;16.60;45.10;;;;;;5052963;28;20451;-80
2023/03/28 10:51:51;;;;;;;10.67;10.17;;;16.00;46.80;;;;;;5052347;28;20463;-79
2023/03/28 10:54:47;;;;;;;11.00;10.40;;;15.30;46.90;;;;;;5052092;28;20451;-81
2023/03/28 10:57:20;;;;;;;10.57;9.77;;;15.80;46.70;;;;;;5052094;28;20553;-80
2023/03/28 10:59:54;;;;;;;9.87;9.37;;;15.70;46.10;;;;;;5050456;28;20452;-82
2023/03/28 11:02:46;;;;;;;10.80;10.40;;;15.90;45.50;;;;;;5051984;28;20459;-81
2023/03/28 17:04:06;;;;;;;8.63;7.90;;;10.10;58.00;;;;;;5366804;23;20808;-75
2023/03/28 17:06:33;;;;;;;8.40;8.00;;;10.20;58.20;;;;;;4905532;29;20455;-73
2023/03/28 17:09:00;;;;;;;9.43;8.87;;;10.20;58.60;;;;;;4903341;29;20443;-74
2023/03/28 17:11:27;;;;;;;10.77;9.43;;;10.20;58.60;;;;;;4901795;29;20521;-74
2023/03/28 17:13:55;;;;;;;8.40;8.03;;;10.10;59.40;;;;;;4893492;29;20570;-73
2023/03/28 17:16:22;;;;;;;9.67;9.00;;;10.10;59.40;;;;;;4907325;29;20529;-74
2023/03/28 17:18:49;;;;;;;9.60;8.77;;;10.00;59.70;;;;;;4912445;29;20459;-73
2023/03/28 17:21:18;;;;;;;9.07;8.50;;;10.00;59.80;;;;;;4912906;29;20451;-73
2023/03/28 17:23:46;;;;;;;9.30;8.50;;;10.00;60.40;;;;;;4905931;29;20458;-73
2023/03/28 17:26:14;;;;;;;8.97;8.57;;;9.90;62.20;;;;;;4891456;29;20467;-75
2023/03/28 17:28:42;;;;;;;8.60;8.13;;;9.90;63.00;;;;;;4893551;29;20462;-75
2023/03/28 17:31:11;;;;;;;8.53;8.03;;;9.80;63.40;;;;;;4893473;29;20590;-75
2023/03/28 17:33:38;;;;;;;8.60;8.20;;;9.70;64.00;;;;;;4893908;29;20469;-75
2023/03/28 17:36:17;;;;;;;8.80;8.30;;;9.60;64.00;;;;;;4893780;29;20455;-75
2023/03/28 17:38:44;;;;;;;8.83;8.37;;;9.50;64.60;;;;;;4893963;29;20461;-75
2023/03/28 17:41:12;;;;;;;8.40;7.70;;;9.40;64.60;;;;;;4904671;29;20454;-75
2023/03/28 17:43:40;;;;;;;7.87;7.47;;;9.40;65.10;;;;;;4916189;29;20466;-75
2023/03/28 17:46:07;;;;;;;8.53;8.13;;;9.40;66.30;;;;;;4915980;29;20482;-74
2023/03/28 17:48:33;;;;;;;8.90;8.33;;;9.30;66.00;;;;;;4916582;29;20461;-75
2023/03/28 17:51:00;;;;;;;8.83;8.20;;;9.20;66.60;;;;;;4916193;29;20492;-76
2023/03/28 17:53:28;;;;;;;8.03;7.73;;;9.20;67.40;;;;;;4916287;29;20501;-75
2023/03/28 17:55:56;;;;;;;9.27;8.53;;;9.10;68.00;;;;;;4915908;29;20469;-75
2023/03/28 17:58:23;;;;;;;8.90;8.40;;;9.10;69.00;;;;;;4916070;29;20462;-76
2023/03/28 18:00:50;;;;;;;8.70;8.13;;;9.00;69.80;;;;;;4903326;29;20963;-76
2023/03/28 18:03:17;;;;;;;8.00;7.60;;;8.90;70.30;;;;;;4881455;29;20982;-76
2023/03/28 18:05:48;;;;;;;7.93;7.43;;;8.90;70.50;;;;;;4878229;29;20458;-76
2023/03/28 18:08:14;;;;;;;8.03;7.53;;;9.00;70.60;;;;;;4878370;29;20792;-76
2023/03/28 18:10:42;;;;;;;8.77;8.13;;;9.10;70.70;;;;;;4877999;29;20840;-75
2023/03/28 18:13:09;;;;;;;8.83;8.00;;;9.20;70.30;;;;;;4878026;29;20459;-75
2023/03/28 18:15:39;;;;;;;9.87;9.03;;;9.20;69.80;;;;;;4889862;29;20475;-75
2023/03/28 18:18:06;;;;;;;9.83;9.00;;;9.20;70.00;;;;;;4896497;29;20466;-76
2023/03/28 18:20:33;;;;;;;11.67;9.10;;;9.20;69.90;;;;;;4896958;29;20722;-75
2023/03/28 18:22:59;;;;;;;9.80;8.93;;;9.20;70.10;;;;;;4896678;29;20462;-74
2023/03/28 18:25:26;;;;;;;9.10;8.53;;;9.20;70.50;;;;;;4896510;29;20661;-74
2023/03/28 18:27:54;;;;;;;9.37;8.40;;;9.10;70.60;;;;;;4895028;29;20489;-75
2023/03/28 18:30:20;;;;;;;8.90;8.30;;;9.10;70.80;;;;;;4896725;29;20514;-74
2023/03/28 18:32:47;;;;;;;9.57;8.70;;;9.10;72.40;;;;;;4896768;29;20459;-75
2023/03/28 18:35:14;;;;;;;8.00;7.50;;;9.00;74.40;;;;;;4896907;29;20824;-75
2023/03/28 18:37:41;;;;;;;7.70;7.30;;;9.00;74.00;;;;;;4896830;29;20812;-75
2023/03/28 18:40:09;;;;;;;8.87;8.37;;;8.90;75.70;;;;;;4896569;29;20466;-75
2023/03/28 18:42:36;;;;;;;8.93;8.20;;;8.80;83.70;;;;;;4898510;29;20455;-75
2023/03/28 18:45:05;;;;;;;9.30;8.77;;;8.70;78.60;;;;;;4898394;29;20530;-75
2023/03/28 18:47:31;;;;;;;9.03;8.53;;;8.60;77.60;;;;;;4896689;29;20459;-75
2023/03/28 18:49:59;;;;;;;9.33;8.83;;;8.60;76.70;;;;;;4896462;29;20890;-76